Terminal Aerodrome Forecast
Issued by NWS

Home | Current Version | Previous Version | Text Only | Print | Product List | Glossary On
Versions: 1 2 3 4 5 6 7 8 9 10 11 12 13
285
FTUS45 KFGZ 061133
TAFPGA
TAF
KPGA 061133Z 0612/0712 VRB03KT P6SM BKN250
     FM061700 18013G23KT P6SM BKN200
     FM062000 20015G25KT P6SM SCT120 BKN150 PROB30 0621/0701 -SHRA
      BKN060
     FM070100 23011KT P6SM SCT100 BKN140=

USA.gov is the U.S. government's official web portal to all federal, state and local government web resources and services.